Cap Andreas — D5EP5 — position and weather

sailwx.info

Track history (hours):
 
Tides and Currents Weather Stations Pressure Air Temp Water Temp Dewpoint Dewpoint Depression Visibility Wind Speed Wind Dir Waves Ship Positions

Cap Andreas

Last reported at 2018-Aug-17 18:38 UTC. Time now 2018-Aug-19 22:53 UTC.
Position N 26°10' W 079°31'.

Length 271 m; draft 10.1 m.

Type: Ship. MMSI: 636016126.

Date/timePositionNaut miles runAvg speedWind from/ knotsBaromVisibWave heightAir tempDewpointWater temp
2018-Aug-17 18:38N 26°10' W 079°31'217.8
2018-Aug-17 18:30N 26°09' W 079°34'917.5
2018-Aug-17 18:00N 26°09' W 079°43'917.5
2018-Aug-17 17:30N 26°08' W 079°53'917.5
2018-Aug-17 17:00N 26°07' W 080°03'4 8.4
2018-Aug-17 16:30N 26°05' W 080°07'1 2.2
2018-Aug-17 16:01N 26°04' W 080°07'0 0.0
2018-Aug-17 15:29N 26°04' W 080°07'0 0.0
2018-Aug-17 14:59N 26°04' W 080°07'0 0.0
2018-Aug-17 14:29N 26°04' W 080°07'0 0.0
2018-Aug-17 13:29N 26°04' W 080°07'0 0.0
2018-Aug-17 12:50N 26°04' W 080°07'0 0.0
2018-Aug-17 12:29N 26°04' W 080°07'0 0.0
2018-Aug-17 11:59N 26°04' W 080°07'0 0.0
2018-Aug-17 11:26N 26°04' W 080°07'0 0.0
2018-Aug-17 10:50N 26°04' W 080°07'0 0.0
2018-Aug-17 10:23N 26°04' W 080°07'0 0.0
2018-Aug-17 09:56N 26°04' W 080°07'0 0.0
2018-Aug-17 09:29N 26°04' W 080°07'0 0.0
2018-Aug-17 08:50N 26°04' W 080°07'0 0.0
2018-Aug-17 08:29N 26°04' W 080°07'0 0.0
2018-Aug-17 07:59N 26°04' W 080°07'0 0.0
2018-Aug-17 07:29N 26°04' W 080°07'0 0.0
2018-Aug-17 06:56N 26°04' W 080°07'0 0.0
2018-Aug-17 06:26N 26°04' W 080°07'0 0.0
2018-Aug-17 05:59N 26°04' W 080°07'0 0.0
2018-Aug-17 05:26N 26°04' W 080°07'0 0.0
2018-Aug-17 04:59N 26°04' W 080°07'0 0.0
2018-Aug-17 04:26N 26°04' W 080°07'0 0.0
2018-Aug-17 03:59N 26°04' W 080°07'0 0.0
2018-Aug-17 03:29N 26°04' W 080°07'0 0.0
2018-Aug-17 02:59N 26°04' W 080°07'0 0.0
2018-Aug-17 02:29N 26°04' W 080°07'0 0.0
2018-Aug-17 01:59N 26°04' W 080°07'0 0.0
2018-Aug-17 01:29N 26°04' W 080°07'0 0.0
2018-Aug-17 00:59N 26°04' W 080°07'0 0.0
2018-Aug-17 00:29N 26°04' W 080°07'0 0.0
2018-Aug-16 23:59N 26°04' W 080°07'0 0.0
2018-Aug-16 23:29N 26°04' W 080°07'0 0.0
2018-Aug-16 22:59N 26°04' W 080°07'0 0.4
2018-Aug-16 22:30N 26°04' W 080°07'1 2.7
2018-Aug-16 22:00N 26°06' W 080°06'5 9.6
2018-Aug-16 21:31N 26°06' W 080°01'816.2
2018-Aug-16 21:01N 26°14' W 079°59'917.4
2018-Aug-16 20:30N 26°22' W 079°57'816.6
2018-Aug-16 20:01N 26°31' W 079°56'816.8
2018-Aug-16 19:30N 26°39' W 079°55'816.5
2018-Aug-16 19:01N 26°47' W 079°55'816.2
2018-Aug-16 18:30N 26°55' W 079°56'816.3
2018-Aug-16 18:00N 27°03' W 079°56'  
2018-Aug-14 12:44N 32°44' W 079°50'311.9
2018-Aug-14 12:30N 32°46' W 079°53'4 7.2
2018-Aug-14 12:00N 32°49' W 079°54'1 1.9
2018-Aug-14 11:29N 32°50' W 079°53'0 0.0
2018-Aug-14 10:59N 32°50' W 079°53'0 0.0
2018-Aug-14 10:29N 32°50' W 079°53'0 0.0
2018-Aug-14 09:59N 32°50' W 079°53'0 0.0
2018-Aug-14 09:29N 32°50' W 079°53'0 0.0
2018-Aug-14 08:59N 32°50' W 079°53'0 0.0
2018-Aug-14 08:29N 32°50' W 079°53'0 0.0
2018-Aug-14 07:59N 32°50' W 079°53'0 0.0
2018-Aug-14 07:29N 32°50' W 079°53'0 0.0
2018-Aug-14 06:41N 32°50' W 079°53'0 0.0
2018-Aug-14 06:29N 32°50' W 079°53'0 0.0
2018-Aug-14 05:59N 32°50' W 079°53'0 0.0
2018-Aug-14 05:29N 32°50' W 079°53'0 0.0
2018-Aug-14 04:56N 32°50' W 079°53'0 0.0
2018-Aug-14 04:29N 32°50' W 079°53'0 0.0
2018-Aug-14 03:59N 32°50' W 079°53'0 0.0
2018-Aug-14 03:23N 32°50' W 079°53'0 0.0
2018-Aug-14 02:59N 32°50' W 079°53'0 0.0
2018-Aug-14 02:29N 32°50' W 079°53'0 0.0
2018-Aug-14 01:59N 32°50' W 079°53'0 0.0
2018-Aug-14 01:29N 32°50' W 079°53'0 0.0
2018-Aug-14 00:59N 32°50' W 079°53'0 0.0
2018-Aug-14 00:29N 32°50' W 079°53'0 0.0
2018-Aug-13 23:59N 32°50' W 079°53'0 0.0
2018-Aug-13 23:29N 32°50' W 079°53'0 0.0
2018-Aug-13 23:00N 32°50' W 079°53'1 1.8
2018-Aug-13 22:31N 32°49' W 079°54'4 7.1
2018-Aug-13 22:00N 32°46' W 079°53'815.3
2018-Aug-13 21:28N 32°41' W 079°45'31311.6
2018-Aug-12 18:22N 36°58' W 076°06'714.7
2018-Aug-12 17:52N 37°00' W 076°15'512.4
2018-Aug-12 17:28N 36°57' W 076°20'2 2.8
2018-Aug-12 16:46N 36°55' W 076°20'0 0.0
2018-Aug-12 14:40N 36°55' W 076°20'0 0.0
2018-Aug-12 14:28N 36°55' W 076°20'0 0.0
2018-Aug-12 13:13N 36°55' W 076°20'0 0.0
2018-Aug-12 12:58N 36°55' W 076°20'0 0.0
2018-Aug-12 12:28N 36°55' W 076°20'0 0.0
2018-Aug-12 11:49N 36°55' W 076°20'0 0.0
2018-Aug-12 11:19N 36°55' W 076°20'0 0.0
2018-Aug-12 09:04N 36°55' W 076°20'0 0.1
2018-Aug-12 08:58N 36°55' W 076°20'0 0.0
2018-Aug-12 08:10N 36°55' W 076°20'0 0.0
2018-Aug-12 07:58N 36°55' W 076°20'0 0.0
2018-Aug-12 07:19N 36°55' W 076°20'0 0.0
2018-Aug-12 06:58N 36°55' W 076°20'0 0.0
2018-Aug-12 06:19N 36°55' W 076°20'0 0.0
2018-Aug-12 05:58N 36°55' W 076°20'0 0.0
2018-Aug-12 05:01N 36°55' W 076°20'0 0.1
2018-Aug-12 04:55N 36°55' W 076°20'0 0.0
2018-Aug-12 04:17N 36°55' W 076°20'0 0.0
2018-Aug-12 04:01N 36°55' W 076°20'0 0.9
2018-Aug-12 03:30N 36°56' W 076°20'3 6.6
2018-Aug-12 02:59N 36°59' W 076°19'814.6
2018-Aug-12 02:26N 36°59' W 076°09'12013.3
2018-Aug-11 17:28N 38°46' W 075°02'715.8
2018-Aug-11 16:59N 38°53' W 075°05'917.7
2018-Aug-11 16:30N 39°01' W 075°09'712.6
2018-Aug-11 15:59N 39°07' W 075°13'715.5
2018-Aug-11 15:31N 39°14' W 075°18'815.7
2018-Aug-11 15:01N 39°19' W 075°25'815.1
2018-Aug-11 14:31N 39°25' W 075°31'611.6
2018-Aug-11 14:00N 39°31' W 075°33'510.1
2018-Aug-11 13:30N 39°36' W 075°34'5 9.4
2018-Aug-11 13:00N 39°40' W 075°32'510.2
2018-Aug-11 12:30N 39°45' W 075°30'510.6
2018-Aug-11 12:00N 39°48' W 075°24'5 9.4
2018-Aug-11 11:30N 39°51' W 075°19'5 9.3
2018-Aug-11 11:00N 39°52' W 075°13'4 7.7
2018-Aug-11 10:30N 39°53' W 075°09'1 1.8
2018-Aug-11 10:00N 39°54' W 075°08'0 0.0
2018-Aug-11 09:30N 39°54' W 075°08'0 0.0
2018-Aug-11 09:00N 39°54' W 075°08'0 0.0
2018-Aug-11 08:30N 39°54' W 075°08'0 0.0
2018-Aug-11 08:00N 39°54' W 075°08'0 0.0
2018-Aug-11 07:30N 39°54' W 075°08'0 0.0
2018-Aug-11 07:00N 39°54' W 075°08'0 0.0
2018-Aug-11 06:30N 39°54' W 075°08'0 0.0
2018-Aug-11 06:00N 39°54' W 075°08'0 0.0
2018-Aug-11 05:30N 39°54' W 075°08'0 0.0
2018-Aug-11 05:00N 39°54' W 075°08'0 0.0
2018-Aug-11 04:30N 39°54' W 075°08'0 0.0
2018-Aug-11 04:00N 39°54' W 075°08'0 0.0
2018-Aug-11 03:30N 39°54' W 075°08'0 0.0
2018-Aug-11 03:00N 39°54' W 075°08'0 0.0
2018-Aug-11 02:30N 39°54' W 075°08'0 0.0
2018-Aug-11 02:00N 39°54' W 075°08'0 0.0
2018-Aug-11 01:30N 39°54' W 075°08'0 0.0
2018-Aug-11 01:00N 39°54' W 075°08'0 0.0
2018-Aug-11 00:30N 39°54' W 075°08'0 0.0
2018-Aug-11 00:00N 39°54' W 075°08'0 0.0
2018-Aug-10 23:30N 39°54' W 075°08'0 0.0
2018-Aug-10 23:00N 39°54' W 075°08'0 0.0
2018-Aug-10 22:30N 39°54' W 075°08'0 0.0
2018-Aug-10 22:00N 39°54' W 075°08'0 0.0
2018-Aug-10 21:30N 39°54' W 075°08'0 0.0
2018-Aug-10 21:00N 39°54' W 075°08'0 0.0
2018-Aug-10 20:30N 39°54' W 075°08'0 0.0
2018-Aug-10 20:00N 39°54' W 075°08'0 0.0
2018-Aug-10 19:30N 39°54' W 075°08'0 0.0
2018-Aug-10 19:00N 39°54' W 075°08'0 0.0
2018-Aug-10 18:30N 39°54' W 075°08'0 0.0
2018-Aug-10 18:00N 39°54' W 075°08'0 0.0
2018-Aug-10 17:30N 39°54' W 075°08'0 0.0
2018-Aug-10 17:00N 39°54' W 075°08'0 0.0
2018-Aug-10 16:30N 39°54' W 075°08'0 0.0
2018-Aug-10 16:00N 39°54' W 075°08'0 0.1
2018-Aug-10 15:30N 39°54' W 075°08'1 2.9
2018-Aug-10 15:00N 39°53' W 075°09'4 7.9
2018-Aug-10 14:30N 39°51' W 075°14'5 9.4
2018-Aug-10 14:00N 39°51' W 075°20'5 9.6
2018-Aug-10 13:30N 39°48' W 075°25'5 9.6
2018-Aug-10 13:01N 39°45' W 075°30'510.1
2018-Aug-10 12:31N 39°40' W 075°32'510.0
2018-Aug-10 12:00N 39°35' W 075°33'713.1
2018-Aug-10 11:30N 39°28' W 075°34'714.3
2018-Aug-10 11:00N 39°23' W 075°28'714.7
2018-Aug-10 10:30N 39°17' W 075°22'714.4
2018-Aug-10 10:00N 39°11' W 075°17'713.4
2018-Aug-10 09:30N 39°06' W 075°12'510.9
2018-Aug-10 09:00N 39°01' W 075°09'612.2
2018-Aug-10 08:30N 38°55' W 075°06'612.0
2018-Aug-10 08:00N 38°49' W 075°03'4 8.1
2018-Aug-10 07:30N 38°46' W 074°60'4 7.2
2018-Aug-10 07:00N 38°44' W 074°56'510.4
2018-Aug-10 06:31N 38°40' W 074°52'510.7
2018-Aug-10 06:01N 38°36' W 074°48'611.0
2018-Aug-10 05:30N 38°32' W 074°43'611.1
2018-Aug-10 05:00N 38°28' W 074°38'710.6
2018-Aug-10 04:20N 38°26' W 074°29'6510.3
2018-Aug-09 22:03N 39°24' W 073°52'111.5
2018-Aug-09 21:57N 39°26' W 073°52'611.7
2018-Aug-09 21:29N 39°31' W 073°52'611.4
2018-Aug-09 20:59N 39°37' W 073°52'611.5
2018-Aug-09 20:30N 39°42' W 073°52'611.5
2018-Aug-09 20:00N 39°48' W 073°52'611.5
2018-Aug-09 19:30N 39°54' W 073°51'611.4
2018-Aug-09 19:00N 39°59' W 073°51'611.6
2018-Aug-09 18:31N 40°05' W 073°51'611.4
2018-Aug-09 18:00N 40°11' W 073°50'1511.2
2018-Aug-09 16:39N 40°26' W 073°48'211.1
2018-Aug-09 16:30N 40°27' W 073°50'917.9
2018-Aug-09 16:00N 40°31' W 074°00'815.9
2018-Aug-09 15:31N 40°39' W 074°04'4 7.9
2018-Aug-09 15:01N 40°39' W 074°09'2 3.1
2018-Aug-09 14:31N 40°39' W 074°11'0 0.1
2018-Aug-09 14:00N 40°39' W 074°11'0 0.0
2018-Aug-09 13:30N 40°39' W 074°11'0 0.0
2018-Aug-09 13:00N 40°39' W 074°11'0 0.0
2018-Aug-09 12:30N 40°39' W 074°11'0 0.0
2018-Aug-09 12:00N 40°39' W 074°11'0 0.0
2018-Aug-09 11:30N 40°39' W 074°11'0 0.0
2018-Aug-09 11:00N 40°39' W 074°11'0 0.0
2018-Aug-09 10:30N 40°39' W 074°11'0 0.0
2018-Aug-09 10:00N 40°39' W 074°11'0 0.0
2018-Aug-09 09:30N 40°39' W 074°11'0 0.0
2018-Aug-09 09:00N 40°39' W 074°11'0 0.0
2018-Aug-09 08:30N 40°39' W 074°11'0 0.0
2018-Aug-09 08:00N 40°39' W 074°11'0 0.0
2018-Aug-09 07:30N 40°39' W 074°11'0 0.0
2018-Aug-09 07:00N 40°39' W 074°11'0 0.0
2018-Aug-09 06:30N 40°39' W 074°11'0 0.0
2018-Aug-09 06:00N 40°39' W 074°11'0 0.0
2018-Aug-09 05:30N 40°39' W 074°11'0 0.0
2018-Aug-09 05:00N 40°39' W 074°11'0 0.0
2018-Aug-09 04:30N 40°39' W 074°11'0 0.0
2018-Aug-09 04:00N 40°39' W 074°11'0 0.0
2018-Aug-09 03:30N 40°39' W 074°11'0 0.0
2018-Aug-09 03:00N 40°39' W 074°11'0 0.0
2018-Aug-09 02:30N 40°39' W 074°11'0 0.0
2018-Aug-09 02:00N 40°39' W 074°11'0 0.0
2018-Aug-09 01:30N 40°39' W 074°11'0 0.0
2018-Aug-09 01:00N 40°39' W 074°11'0 0.0
2018-Aug-09 00:30N 40°39' W 074°11'0 0.0
2018-Aug-09 00:00N 40°39' W 074°11'0 0.0
2018-Aug-08 23:30N 40°39' W 074°11'0 0.0
2018-Aug-08 23:00N 40°39' W 074°11'0 0.0
2018-Aug-08 22:30N 40°39' W 074°11'0 0.0
2018-Aug-08 22:00N 40°39' W 074°11'0 0.0
2018-Aug-08 21:27N 40°39' W 074°11'0 0.0
2018-Aug-08 21:01N 40°39' W 074°11'0 0.4
2018-Aug-08 20:31N 40°39' W 074°11'2 4.2
2018-Aug-08 20:01N 40°39' W 074°08'4 7.6
2018-Aug-08 19:30N 40°38' W 074°03'5 9.6
2018-Aug-08 19:00N 40°34' W 074°02'612.2
2018-Aug-08 18:30N 40°30' W 073°56'612.8
2018-Aug-08 18:01N 40°27' W 073°48'4 8.0
2018-Aug-08 17:30N 40°24' W 073°44'1812.0
2018-Aug-08 16:03N 40°14' W 073°26'112.8
2018-Aug-08 15:58N 40°13' W 073°25'612.8
2018-Aug-08 15:29N 40°09' W 073°18'612.6
2018-Aug-08 15:00N 40°05' W 073°12'612.7
2018-Aug-08 14:30N 40°00' W 073°07'1412.8
2018-Aug-08 13:24N 39°49' W 072°55'512.2
2018-Aug-08 13:00N 39°45' W 072°51'4 7.6
2018-Aug-08 12:30N 39°43' W 072°49'713.1
2018-Aug-08 12:00N 39°37' W 072°43'815.4
2018-Aug-08 11:30N 39°32' W 072°37'815.5
2018-Aug-08 11:00N 39°26' W 072°30'815.7
2018-Aug-08 10:30N 39°20' W 072°23'815.9
2018-Aug-08 10:00N 39°15' W 072°15'1016.0
2018-Aug-08 09:22N 39°08' W 072°06'  
Track history (hours):
 
Tides and Currents Weather Stations Pressure Air Temp Water Temp Dewpoint Dewpoint Depression Visibility Wind Speed Wind Dir Waves Ship Positions

Cap Andreas

Last reported at 2018-Aug-17 18:38 UTC. Time now 2018-Aug-19 22:53 UTC.
Position N 26°10' W 079°31'.

Length 271 m; draft 10.1 m.

Type: Ship. MMSI: 636016126.

Date/timePositionNaut miles runAvg speedWind from/ knotsBaromVisibWave heightAir tempDewpointWater temp
2018-Aug-17 18:38N 26°10' W 079°31'217.8
2018-Aug-17 18:30N 26°09' W 079°34'917.5
2018-Aug-17 18:00N 26°09' W 079°43'917.5
2018-Aug-17 17:30N 26°08' W 079°53'917.5
2018-Aug-17 17:00N 26°07' W 080°03'4 8.4
2018-Aug-17 16:30N 26°05' W 080°07'1 2.2
2018-Aug-17 16:01N 26°04' W 080°07'0 0.0
2018-Aug-17 15:29N 26°04' W 080°07'0 0.0
2018-Aug-17 14:59N 26°04' W 080°07'0 0.0
2018-Aug-17 14:29N 26°04' W 080°07'0 0.0
2018-Aug-17 13:29N 26°04' W 080°07'0 0.0
2018-Aug-17 12:50N 26°04' W 080°07'0 0.0
2018-Aug-17 12:29N 26°04' W 080°07'0 0.0
2018-Aug-17 11:59N 26°04' W 080°07'0 0.0
2018-Aug-17 11:26N 26°04' W 080°07'0 0.0
2018-Aug-17 10:50N 26°04' W 080°07'0 0.0
2018-Aug-17 10:23N 26°04' W 080°07'0 0.0
2018-Aug-17 09:56N 26°04' W 080°07'0 0.0
2018-Aug-17 09:29N 26°04' W 080°07'0 0.0
2018-Aug-17 08:50N 26°04' W 080°07'0 0.0
2018-Aug-17 08:29N 26°04' W 080°07'0 0.0
2018-Aug-17 07:59N 26°04' W 080°07'0 0.0
2018-Aug-17 07:29N 26°04' W 080°07'0 0.0
2018-Aug-17 06:56N 26°04' W 080°07'0 0.0
2018-Aug-17 06:26N 26°04' W 080°07'0 0.0
2018-Aug-17 05:59N 26°04' W 080°07'0 0.0
2018-Aug-17 05:26N 26°04' W 080°07'0 0.0
2018-Aug-17 04:59N 26°04' W 080°07'0 0.0
2018-Aug-17 04:26N 26°04' W 080°07'0 0.0
2018-Aug-17 03:59N 26°04' W 080°07'0 0.0
2018-Aug-17 03:29N 26°04' W 080°07'0 0.0
2018-Aug-17 02:59N 26°04' W 080°07'0 0.0
2018-Aug-17 02:29N 26°04' W 080°07'0 0.0
2018-Aug-17 01:59N 26°04' W 080°07'0 0.0
2018-Aug-17 01:29N 26°04' W 080°07'0 0.0
2018-Aug-17 00:59N 26°04' W 080°07'0 0.0
2018-Aug-17 00:29N 26°04' W 080°07'0 0.0
2018-Aug-16 23:59N 26°04' W 080°07'0 0.0
2018-Aug-16 23:29N 26°04' W 080°07'0 0.0
2018-Aug-16 22:59N 26°04' W 080°07'0 0.4
2018-Aug-16 22:30N 26°04' W 080°07'1 2.7
2018-Aug-16 22:00N 26°06' W 080°06'5 9.6
2018-Aug-16 21:31N 26°06' W 080°01'816.2
2018-Aug-16 21:01N 26°14' W 079°59'917.4
2018-Aug-16 20:30N 26°22' W 079°57'816.6
2018-Aug-16 20:01N 26°31' W 079°56'816.8
2018-Aug-16 19:30N 26°39' W 079°55'816.5
2018-Aug-16 19:01N 26°47' W 079°55'816.2
2018-Aug-16 18:30N 26°55' W 079°56'816.3
2018-Aug-16 18:00N 27°03' W 079°56'  
2018-Aug-14 12:44N 32°44' W 079°50'311.9
2018-Aug-14 12:30N 32°46' W 079°53'4 7.2
2018-Aug-14 12:00N 32°49' W 079°54'1 1.9
2018-Aug-14 11:29N 32°50' W 079°53'0 0.0
2018-Aug-14 10:59N 32°50' W 079°53'0 0.0
2018-Aug-14 10:29N 32°50' W 079°53'0 0.0
2018-Aug-14 09:59N 32°50' W 079°53'0 0.0
2018-Aug-14 09:29N 32°50' W 079°53'0 0.0
2018-Aug-14 08:59N 32°50' W 079°53'0 0.0
2018-Aug-14 08:29N 32°50' W 079°53'0 0.0
2018-Aug-14 07:59N 32°50' W 079°53'0 0.0
2018-Aug-14 07:29N 32°50' W 079°53'0 0.0
2018-Aug-14 06:41N 32°50' W 079°53'0 0.0
2018-Aug-14 06:29N 32°50' W 079°53'0 0.0
2018-Aug-14 05:59N 32°50' W 079°53'0 0.0
2018-Aug-14 05:29N 32°50' W 079°53'0 0.0
2018-Aug-14 04:56N 32°50' W 079°53'0 0.0
2018-Aug-14 04:29N 32°50' W 079°53'0 0.0
2018-Aug-14 03:59N 32°50' W 079°53'0 0.0
2018-Aug-14 03:23N 32°50' W 079°53'0 0.0
2018-Aug-14 02:59N 32°50' W 079°53'0 0.0
2018-Aug-14 02:29N 32°50' W 079°53'0 0.0
2018-Aug-14 01:59N 32°50' W 079°53'0 0.0
2018-Aug-14 01:29N 32°50' W 079°53'0 0.0
2018-Aug-14 00:59N 32°50' W 079°53'0 0.0
2018-Aug-14 00:29N 32°50' W 079°53'0 0.0
2018-Aug-13 23:59N 32°50' W 079°53'0 0.0
2018-Aug-13 23:29N 32°50' W 079°53'0 0.0
2018-Aug-13 23:00N 32°50' W 079°53'1 1.8
2018-Aug-13 22:31N 32°49' W 079°54'4 7.1
2018-Aug-13 22:00N 32°46' W 079°53'815.3
2018-Aug-13 21:28N 32°41' W 079°45'31311.6
2018-Aug-12 18:22N 36°58' W 076°06'714.7
2018-Aug-12 17:52N 37°00' W 076°15'512.4
2018-Aug-12 17:28N 36°57' W 076°20'2 2.8
2018-Aug-12 16:46N 36°55' W 076°20'0 0.0
2018-Aug-12 14:40N 36°55' W 076°20'0 0.0
2018-Aug-12 14:28N 36°55' W 076°20'0 0.0
2018-Aug-12 13:13N 36°55' W 076°20'0 0.0
2018-Aug-12 12:58N 36°55' W 076°20'0 0.0
2018-Aug-12 12:28N 36°55' W 076°20'0 0.0
2018-Aug-12 11:49N 36°55' W 076°20'0 0.0
2018-Aug-12 11:19N 36°55' W 076°20'0 0.0
2018-Aug-12 09:04N 36°55' W 076°20'0 0.1
2018-Aug-12 08:58N 36°55' W 076°20'0 0.0
2018-Aug-12 08:10N 36°55' W 076°20'0 0.0
2018-Aug-12 07:58N 36°55' W 076°20'0 0.0
2018-Aug-12 07:19N 36°55' W 076°20'0 0.0
2018-Aug-12 06:58N 36°55' W 076°20'0 0.0
2018-Aug-12 06:19N 36°55' W 076°20'0 0.0
2018-Aug-12 05:58N 36°55' W 076°20'0 0.0
2018-Aug-12 05:01N 36°55' W 076°20'0 0.1
2018-Aug-12 04:55N 36°55' W 076°20'0 0.0
2018-Aug-12 04:17N 36°55' W 076°20'0 0.0
2018-Aug-12 04:01N 36°55' W 076°20'0 0.9
2018-Aug-12 03:30N 36°56' W 076°20'3 6.6
2018-Aug-12 02:59N 36°59' W 076°19'814.6
2018-Aug-12 02:26N 36°59' W 076°09'12013.3
2018-Aug-11 17:28N 38°46' W 075°02'715.8
2018-Aug-11 16:59N 38°53' W 075°05'917.7
2018-Aug-11 16:30N 39°01' W 075°09'712.6
2018-Aug-11 15:59N 39°07' W 075°13'715.5
2018-Aug-11 15:31N 39°14' W 075°18'815.7
2018-Aug-11 15:01N 39°19' W 075°25'815.1
2018-Aug-11 14:31N 39°25' W 075°31'611.6
2018-Aug-11 14:00N 39°31' W 075°33'510.1
2018-Aug-11 13:30N 39°36' W 075°34'5 9.4
2018-Aug-11 13:00N 39°40' W 075°32'510.2
2018-Aug-11 12:30N 39°45' W 075°30'510.6
2018-Aug-11 12:00N 39°48' W 075°24'5 9.4
2018-Aug-11 11:30N 39°51' W 075°19'5 9.3
2018-Aug-11 11:00N 39°52' W 075°13'4 7.7
2018-Aug-11 10:30N 39°53' W 075°09'1 1.8
2018-Aug-11 10:00N 39°54' W 075°08'0 0.0
2018-Aug-11 09:30N 39°54' W 075°08'0 0.0
2018-Aug-11 09:00N 39°54' W 075°08'0 0.0
2018-Aug-11 08:30N 39°54' W 075°08'0 0.0
2018-Aug-11 08:00N 39°54' W 075°08'0 0.0
2018-Aug-11 07:30N 39°54' W 075°08'0 0.0
2018-Aug-11 07:00N 39°54' W 075°08'0 0.0
2018-Aug-11 06:30N 39°54' W 075°08'0 0.0
2018-Aug-11 06:00N 39°54' W 075°08'0 0.0
2018-Aug-11 05:30N 39°54' W 075°08'0 0.0
2018-Aug-11 05:00N 39°54' W 075°08'0 0.0
2018-Aug-11 04:30N 39°54' W 075°08'0 0.0
2018-Aug-11 04:00N 39°54' W 075°08'0 0.0
2018-Aug-11 03:30N 39°54' W 075°08'0 0.0
2018-Aug-11 03:00N 39°54' W 075°08'0 0.0
2018-Aug-11 02:30N 39°54' W 075°08'0 0.0
2018-Aug-11 02:00N 39°54' W 075°08'0 0.0
2018-Aug-11 01:30N 39°54' W 075°08'0 0.0
2018-Aug-11 01:00N 39°54' W 075°08'0 0.0
2018-Aug-11 00:30N 39°54' W 075°08'0 0.0
2018-Aug-11 00:00N 39°54' W 075°08'0 0.0
2018-Aug-10 23:30N 39°54' W 075°08'0 0.0
2018-Aug-10 23:00N 39°54' W 075°08'0 0.0
2018-Aug-10 22:30N 39°54' W 075°08'0 0.0
2018-Aug-10 22:00N 39°54' W 075°08'0 0.0
2018-Aug-10 21:30N 39°54' W 075°08'0 0.0
2018-Aug-10 21:00N 39°54' W 075°08'0 0.0
2018-Aug-10 20:30N 39°54' W 075°08'0 0.0
2018-Aug-10 20:00N 39°54' W 075°08'0 0.0
2018-Aug-10 19:30N 39°54' W 075°08'0 0.0
2018-Aug-10 19:00N 39°54' W 075°08'0 0.0
2018-Aug-10 18:30N 39°54' W 075°08'0 0.0
2018-Aug-10 18:00N 39°54' W 075°08'0 0.0
2018-Aug-10 17:30N 39°54' W 075°08'0 0.0
2018-Aug-10 17:00N 39°54' W 075°08'0 0.0
2018-Aug-10 16:30N 39°54' W 075°08'0 0.0
2018-Aug-10 16:00N 39°54' W 075°08'0 0.1
2018-Aug-10 15:30N 39°54' W 075°08'1 2.9
2018-Aug-10 15:00N 39°53' W 075°09'4 7.9
2018-Aug-10 14:30N 39°51' W 075°14'5 9.4
2018-Aug-10 14:00N 39°51' W 075°20'5 9.6
2018-Aug-10 13:30N 39°48' W 075°25'5 9.6
2018-Aug-10 13:01N 39°45' W 075°30'510.1
2018-Aug-10 12:31N 39°40' W 075°32'510.0
2018-Aug-10 12:00N 39°35' W 075°33'713.1
2018-Aug-10 11:30N 39°28' W 075°34'714.3
2018-Aug-10 11:00N 39°23' W 075°28'714.7
2018-Aug-10 10:30N 39°17' W 075°22'714.4
2018-Aug-10 10:00N 39°11' W 075°17'713.4
2018-Aug-10 09:30N 39°06' W 075°12'510.9
2018-Aug-10 09:00N 39°01' W 075°09'612.2
2018-Aug-10 08:30N 38°55' W 075°06'612.0
2018-Aug-10 08:00N 38°49' W 075°03'4 8.1
2018-Aug-10 07:30N 38°46' W 074°60'4 7.2
2018-Aug-10 07:00N 38°44' W 074°56'510.4
2018-Aug-10 06:31N 38°40' W 074°52'510.7
2018-Aug-10 06:01N 38°36' W 074°48'611.0
2018-Aug-10 05:30N 38°32' W 074°43'611.1
2018-Aug-10 05:00N 38°28' W 074°38'710.6
2018-Aug-10 04:20N 38°26' W 074°29'6510.3
2018-Aug-09 22:03N 39°24' W 073°52'111.5
2018-Aug-09 21:57N 39°26' W 073°52'611.7
2018-Aug-09 21:29N 39°31' W 073°52'611.4
2018-Aug-09 20:59N 39°37' W 073°52'611.5
2018-Aug-09 20:30N 39°42' W 073°52'611.5
2018-Aug-09 20:00N 39°48' W 073°52'611.5
2018-Aug-09 19:30N 39°54' W 073°51'611.4
2018-Aug-09 19:00N 39°59' W 073°51'611.6
2018-Aug-09 18:31N 40°05' W 073°51'611.4
2018-Aug-09 18:00N 40°11' W 073°50'1511.2
2018-Aug-09 16:39N 40°26' W 073°48'211.1
2018-Aug-09 16:30N 40°27' W 073°50'917.9
2018-Aug-09 16:00N 40°31' W 074°00'815.9
2018-Aug-09 15:31N 40°39' W 074°04'4 7.9
2018-Aug-09 15:01N 40°39' W 074°09'2 3.1
2018-Aug-09 14:31N 40°39' W 074°11'0 0.1
2018-Aug-09 14:00N 40°39' W 074°11'0 0.0
2018-Aug-09 13:30N 40°39' W 074°11'0 0.0
2018-Aug-09 13:00N 40°39' W 074°11'0 0.0
2018-Aug-09 12:30N 40°39' W 074°11'0 0.0
2018-Aug-09 12:00N 40°39' W 074°11'0 0.0
2018-Aug-09 11:30N 40°39' W 074°11'0 0.0
2018-Aug-09 11:00N 40°39' W 074°11'0 0.0
2018-Aug-09 10:30N 40°39' W 074°11'0 0.0
2018-Aug-09 10:00N 40°39' W 074°11'0 0.0
2018-Aug-09 09:30N 40°39' W 074°11'0 0.0
2018-Aug-09 09:00N 40°39' W 074°11'0 0.0
2018-Aug-09 08:30N 40°39' W 074°11'0 0.0
2018-Aug-09 08:00N 40°39' W 074°11'0 0.0
2018-Aug-09 07:30N 40°39' W 074°11'0 0.0
2018-Aug-09 07:00N 40°39' W 074°11'0 0.0
2018-Aug-09 06:30N 40°39' W 074°11'0 0.0
2018-Aug-09 06:00N 40°39' W 074°11'0 0.0
2018-Aug-09 05:30N 40°39' W 074°11'0 0.0
2018-Aug-09 05:00N 40°39' W 074°11'0 0.0
2018-Aug-09 04:30N 40°39' W 074°11'0 0.0
2018-Aug-09 04:00N 40°39' W 074°11'0 0.0
2018-Aug-09 03:30N 40°39' W 074°11'0 0.0
2018-Aug-09 03:00N 40°39' W 074°11'0 0.0
2018-Aug-09 02:30N 40°39' W 074°11'0 0.0
2018-Aug-09 02:00N 40°39' W 074°11'0 0.0
2018-Aug-09 01:30N 40°39' W 074°11'0 0.0
2018-Aug-09 01:00N 40°39' W 074°11'0 0.0
2018-Aug-09 00:30N 40°39' W 074°11'0 0.0
2018-Aug-09 00:00N 40°39' W 074°11'0 0.0
2018-Aug-08 23:30N 40°39' W 074°11'0 0.0
2018-Aug-08 23:00N 40°39' W 074°11'0 0.0
2018-Aug-08 22:30N 40°39' W 074°11'0 0.0
2018-Aug-08 22:00N 40°39' W 074°11'0 0.0
2018-Aug-08 21:27N 40°39' W 074°11'0 0.0
2018-Aug-08 21:01N 40°39' W 074°11'0 0.4
2018-Aug-08 20:31N 40°39' W 074°11'2 4.2
2018-Aug-08 20:01N 40°39' W 074°08'4 7.6
2018-Aug-08 19:30N 40°38' W 074°03'5 9.6
2018-Aug-08 19:00N 40°34' W 074°02'612.2
2018-Aug-08 18:30N 40°30' W 073°56'612.8
2018-Aug-08 18:01N 40°27' W 073°48'4 8.0
2018-Aug-08 17:30N 40°24' W 073°44'1812.0
2018-Aug-08 16:03N 40°14' W 073°26'112.8
2018-Aug-08 15:58N 40°13' W 073°25'612.8
2018-Aug-08 15:29N 40°09' W 073°18'612.6
2018-Aug-08 15:00N 40°05' W 073°12'612.7
2018-Aug-08 14:30N 40°00' W 073°07'1412.8
2018-Aug-08 13:24N 39°49' W 072°55'512.2
2018-Aug-08 13:00N 39°45' W 072°51'4 7.6
2018-Aug-08 12:30N 39°43' W 072°49'713.1
2018-Aug-08 12:00N 39°37' W 072°43'815.4
2018-Aug-08 11:30N 39°32' W 072°37'815.5
2018-Aug-08 11:00N 39°26' W 072°30'815.7
2018-Aug-08 10:30N 39°20' W 072°23'815.9
2018-Aug-08 10:00N 39°15' W 072°15'1016.0
2018-Aug-08 09:22N 39°08' W 072°06'  

Dump ship's entire track history